메인 페이지
METAR-TAF:

METAR-TAF

공항 :

Sherbrooke, 퀘벡, 캐나다

위도: 45-24N, 경도: 071-53W, 고도: 170m

현재 날씨관측

예보는 14분 전, 23:18시(UTC)에 발표되었습니다.
북북서3kt풍과 풍을 오가는
온도 8°C
습도 100%
기압 996 hPa
시정: 14.5km
고도 2000ft 상공 구름 조금
고도 2500ft 상공 구름 많음
고도 3900ft 상공 흐림

METAR: CYSC 012318Z AUTO 33003KT 280V350 9SM RA FEW020 BKN025 OVC039 08/08 A2942 RMK SLP966 DENSITY ALT 800FT

시각: 18:32 (23:32 UTC)

예보

예보는 3 시간 25분 전, 20:07시(UTC)에 발표되었습니다.
예보 대상 시간: 01일 20시부터 02일 03시까지 (UTC)
남동12kt
시정: 10km
고도 3000ft 상공 구름 조금
고도 22000ft 상공 구름 보통
일시적
01일 20시부터 01일 21시까지 (UTC)
고도 3000ft 상공 구름 많음
01일 2100시부터 (UTC)
남동12kt, 순간 최대 풍속 22kt
시정: 10km
고도 2000ft 상공 구름 조금
고도 4000ft 상공 구름 많음
일시적
01일 21시부터 02일 03시까지 (UTC)
시정: 8.0km
고도 2000ft 상공 구름 많음
고도 3000ft 상공 흐림
약한소나기, 박무

TAF: CYSC 012007Z 0120/0203 13012KT P6SM FEW030 SCT220 TEMPO 0120/0121 BKN030 FM012100 13012G22KT P6SM FEW020 BKN040 TEMPO 0121/0203 5SM -SHRA BR BKN020 OVC030 RMK FCST BASED ON AUTO OBS. NXT FCST BY 020000Z

4,000개 이상의 공항 관측 자료 및 예보 (METAR 및 TAF 보고).

지도상에서 검색 가능한 기상관측소가 노란 점과 빨간 점으로 표시되어 있습니다.

기상관측소 명을 보려면 표시 위로 마우스를 이동하세요.

날씨 관측과 예보를 보려면 클릭하세요.

지도 변경 : 확대하려면 엑스 표시가 있는 녹색 버튼, 축소하려면 빼기 표시가 있는 녹색 버튼, 다음 페이지의 지도를 보려면 녹색 화살표를 클릭하세요.


METAR-TAF: